createdAt,value
2023-05-04T00:01:32.256Z,22.48
2023-05-04T00:04:05.515Z,22.48
2023-05-04T00:06:52.278Z,21.42
2023-05-04T00:09:25.379Z,24.35
2023-05-04T00:12:13.265Z,22.73
2023-05-04T00:14:46.354Z,23.52
2023-05-04T00:17:33.329Z,22.88
2023-05-04T00:20:06.510Z,22.73
2023-05-04T00:22:53.278Z,23.98
2023-05-04T00:25:26.496Z,22.90
2023-05-04T00:28:13.283Z,20.50
2023-05-04T00:30:46.698Z,21.10
2023-05-04T00:33:33.275Z,20.92
2023-05-04T00:36:13.275Z,20.23
2023-05-04T00:39:01.290Z,21.73
2023-05-04T00:41:41.302Z,22.40
2023-05-04T00:44:35.277Z,20.98
2023-05-04T00:47:29.313Z,20.10
2023-05-04T00:50:24.311Z,20.95
2023-05-04T00:53:20.266Z,21.85
2023-05-04T00:55:53.372Z,20.95
2023-05-04T00:58:41.292Z,21.10
2023-05-04T01:01:21.362Z,21.85
2023-05-04T01:04:15.371Z,22.45
2023-05-04T01:07:31.293Z,21.33
2023-05-04T01:10:14.470Z,20.50
2023-05-04T01:13:07.395Z,21.30
2023-05-04T01:15:41.369Z,22.95
2023-05-04T01:18:30.311Z,21.75
2023-05-04T01:21:10.291Z,21.45
2023-05-04T01:23:57.307Z,20.60
2023-05-04T01:26:41.295Z,22.67
2023-05-04T01:29:45.336Z,22.83
2023-05-04T01:32:35.389Z,22.40
2023-05-04T01:35:09.391Z,20.60
2023-05-04T01:37:56.306Z,22.60
2023-05-04T01:40:29.418Z,22.35
2023-05-04T01:43:16.310Z,22.92
2023-05-04T01:45:56.342Z,21.40
2023-05-04T01:48:43.322Z,22.73
2023-05-04T01:51:23.328Z,23.55
2023-05-04T01:54:10.299Z,22.35
2023-05-04T01:56:43.444Z,23.92
2023-05-04T01:59:30.338Z,22.65
2023-05-04T02:02:03.824Z,23.60
2023-05-04T02:04:50.330Z,22.63
2023-05-04T02:07:23.415Z,22.55
2023-05-04T02:10:10.370Z,21.70
2023-05-04T02:12:50.362Z,24.58
2023-05-04T02:15:44.348Z,23.52
2023-05-04T02:18:31.314Z,22.42
2023-05-04T02:21:04.603Z,23.17
2023-05-04T02:23:51.328Z,20.88
2023-05-04T02:26:24.500Z,21.85
2023-05-04T02:29:12.324Z,22.42
2023-05-04T02:31:45.515Z,21.08
2023-05-04T02:34:25.361Z,22.17
2023-05-04T02:37:07.789Z,23.77
2023-05-04T02:39:47.318Z,22.55
2023-05-04T02:42:27.416Z,20.92
2023-05-04T02:45:07.342Z,21.63
2023-05-04T02:47:47.478Z,21.08
2023-05-04T02:50:27.337Z,22.25
2023-05-04T02:53:14.347Z,22.27
2023-05-04T02:55:47.441Z,22.30
2023-05-04T02:58:34.330Z,21.25
2023-05-04T03:01:07.511Z,21.20
2023-05-04T03:03:54.374Z,21.98
2023-05-04T03:06:34.447Z,21.58
2023-05-04T03:09:14.369Z,22.02
2023-05-04T03:11:54.506Z,22.85
2023-05-04T03:14:34.376Z,23.08
2023-05-04T03:17:21.343Z,21.17
2023-05-04T03:20:01.326Z,20.90
2023-05-04T03:22:48.341Z,21.10
2023-05-04T03:25:21.768Z,20.90
2023-05-04T03:28:08.354Z,21.73
2023-05-04T03:30:41.900Z,21.60
2023-05-04T03:33:28.368Z,22.85
2023-05-04T03:36:01.715Z,22.35
2023-05-04T03:38:48.348Z,23.23
2023-05-04T03:41:22.000Z,23.30
2023-05-04T03:44:08.347Z,23.63
2023-05-04T03:46:48.353Z,23.83
2023-05-04T03:49:35.383Z,23.23
2023-05-04T03:52:08.759Z,22.02
2023-05-04T03:54:55.360Z,21.95
2023-05-04T03:57:28.748Z,22.52
2023-05-04T04:00:15.364Z,21.17
2023-05-04T04:02:48.783Z,22.67
2023-05-04T04:05:35.367Z,20.08
2023-05-04T04:08:08.760Z,20.45
2023-05-04T04:10:55.375Z,20.45
2023-05-04T04:13:35.382Z,21.00
2023-05-04T04:16:16.241Z,23.08
2023-05-04T04:18:57.394Z,21.52
2023-05-04T04:21:37.486Z,23.02
2023-05-04T04:24:17.360Z,21.95
2023-05-04T04:27:00.213Z,21.88
2023-05-04T04:29:43.380Z,22.58
2023-05-04T04:32:30.413Z,23.42
2023-05-04T04:35:11.405Z,22.40
2023-05-04T04:37:51.690Z,23.08
2023-05-04T04:40:31.388Z,23.85
2023-05-04T04:43:11.707Z,21.42
2023-05-04T04:45:51.393Z,21.52
2023-05-04T04:48:38.385Z,20.60
2023-05-04T04:51:12.305Z,22.50
2023-05-04T04:54:02.386Z,21.73
2023-05-04T04:56:40.571Z,20.92
2023-05-04T04:59:27.403Z,21.48
2023-05-04T05:02:01.882Z,25.25
2023-05-04T05:04:48.453Z,23.92
2023-05-04T05:07:21.828Z,23.20
2023-05-04T05:10:08.551Z,26.80
2023-05-04T05:12:41.829Z,23.73
2023-05-04T05:15:28.406Z,23.83
2023-05-04T05:18:11.532Z,23.17
2023-05-04T05:20:51.525Z,24.60
2023-05-04T05:23:31.430Z,24.85
2023-05-04T05:26:11.835Z,23.98
2023-05-04T05:28:51.410Z,25.63
2023-05-04T05:31:38.429Z,23.25
2023-05-04T05:34:11.764Z,26.85
2023-05-04T05:36:58.425Z,27.20
2023-05-04T05:39:41.408Z,23.10
2023-05-04T05:42:28.399Z,24.73
2023-05-04T05:45:03.706Z,24.83
2023-05-04T05:47:50.511Z,25.15
2023-05-04T05:50:24.340Z,24.38
2023-05-04T05:53:11.428Z,22.45
2023-05-04T05:55:46.565Z,23.38
2023-05-04T05:58:33.426Z,26.10
2023-05-04T06:01:06.821Z,25.30
2023-05-04T06:03:56.559Z,24.65
2023-05-04T06:06:50.417Z,21.95
2023-05-04T06:09:37.424Z,22.38
2023-05-04T06:12:13.601Z,25.55
2023-05-04T06:15:00.406Z,27.83
2023-05-04T06:17:33.823Z,22.55
2023-05-04T06:20:20.427Z,24.63
2023-05-04T06:22:53.542Z,28.80
2023-05-04T06:25:40.450Z,24.10
2023-05-04T06:28:20.432Z,26.52
2023-05-04T06:31:08.490Z,31.90
2023-05-04T06:33:48.474Z,24.88
2023-05-04T06:36:35.449Z,26.92
2023-05-04T06:39:15.451Z,30.65
2023-05-04T06:42:12.452Z,27.67
2023-05-04T06:44:59.433Z,27.10
2023-05-04T06:47:32.621Z,30.63
2023-05-04T06:50:20.435Z,33.25
2023-05-04T06:52:56.564Z,29.88
2023-05-04T06:55:44.482Z,28.13
2023-05-04T06:58:25.437Z,25.83
2023-05-04T07:01:16.976Z,29.85
2023-05-04T07:03:51.861Z,30.27
2023-05-04T07:06:38.457Z,26.45
2023-05-04T07:09:11.992Z,24.77
2023-05-04T07:11:58.439Z,26.50
2023-05-04T07:14:31.592Z,28.13
2023-05-04T07:17:18.453Z,25.10
2023-05-04T07:20:01.632Z,23.33
2023-05-04T07:22:48.497Z,25.35
2023-05-04T07:25:28.458Z,27.90
2023-05-04T07:28:15.477Z,25.02
2023-05-04T07:30:55.457Z,22.85
2023-05-04T07:33:42.468Z,20.77
2023-05-04T07:36:16.592Z,26.63
2023-05-04T07:39:03.453Z,23.02
2023-05-04T07:41:43.471Z,21.90
2023-05-04T07:44:30.468Z,23.42
2023-05-04T07:47:14.494Z,23.25
2023-05-04T07:50:01.466Z,18.55
2023-05-04T07:52:41.463Z,20.30
2023-05-04T07:55:28.558Z,21.58
2023-05-04T07:58:01.598Z,22.35
2023-05-04T08:00:48.474Z,18.63
2023-05-04T08:03:28.466Z,19.73
2023-05-04T08:06:22.477Z,18.90
2023-05-04T08:09:09.467Z,20.50
2023-05-04T08:11:42.663Z,24.90
2023-05-04T08:14:29.476Z,22.35
2023-05-04T08:17:09.487Z,17.42
2023-05-04T08:20:03.489Z,17.83
2023-05-04T08:22:50.566Z,22.85
2023-05-04T08:25:23.658Z,19.60
2023-05-04T08:28:10.581Z,18.73
2023-05-04T08:30:50.499Z,21.38
2023-05-04T08:33:44.664Z,19.10
2023-05-04T08:36:38.502Z,18.02
2023-05-04T08:39:25.525Z,17.95
2023-05-04T08:41:58.751Z,19.48
2023-05-04T08:44:45.511Z,18.75
2023-05-04T08:47:18.606Z,18.52
2023-05-04T08:50:05.514Z,16.88
2023-05-04T08:52:38.889Z,16.80
2023-05-04T08:55:26.494Z,17.80
2023-05-04T08:58:00.786Z,18.30
2023-05-04T09:00:49.572Z,18.50
2023-05-04T09:03:30.686Z,18.50
2023-05-04T09:06:24.510Z,19.17
2023-05-04T09:09:18.499Z,19.10
2023-05-04T09:12:05.505Z,16.95
2023-05-04T09:14:41.406Z,17.42
2023-05-04T09:17:31.508Z,16.63
2023-05-04T09:20:07.147Z,17.25
2023-05-04T09:22:53.508Z,16.83
2023-05-04T09:25:27.224Z,16.80
2023-05-04T09:28:13.536Z,14.52
2023-05-04T09:30:48.083Z,16.50
2023-05-04T09:33:34.578Z,16.85
2023-05-04T09:36:21.813Z,17.20
2023-05-04T09:39:18.573Z,17.58
2023-05-04T09:41:51.932Z,18.35
2023-05-04T09:44:39.554Z,17.23
2023-05-04T09:47:12.753Z,16.50
2023-05-04T09:49:59.517Z,16.48
2023-05-04T09:52:45.512Z,16.10
2023-05-04T09:55:40.503Z,17.30
2023-05-04T09:58:28.577Z,17.13
2023-05-04T10:01:01.793Z,16.05
2023-05-04T10:03:50.788Z,17.30
2023-05-04T10:06:44.583Z,16.48
2023-05-04T10:09:42.573Z,16.60
2023-05-04T10:12:36.609Z,16.90
2023-05-04T10:15:24.570Z,17.13
2023-05-04T10:18:28.572Z,17.13
2023-05-04T10:21:33.550Z,16.63
2023-05-04T10:24:51.533Z,16.80
2023-05-04T10:28:41.533Z,15.68
2023-05-04T10:31:28.593Z,15.40
2023-05-04T10:34:01.712Z,15.27
2023-05-04T10:36:48.569Z,16.33
2023-05-04T10:39:26.759Z,15.25
2023-05-04T10:42:14.572Z,15.13
2023-05-04T10:45:10.575Z,20.88
2023-05-04T10:48:11.572Z,14.82
2023-05-04T10:50:58.581Z,16.23
2023-05-04T10:53:38.668Z,16.08
2023-05-04T10:56:30.582Z,15.57
2023-05-04T10:59:21.561Z,14.13
2023-05-04T11:02:09.659Z,21.80
2023-05-04T11:04:51.587Z,15.52
2023-05-04T11:07:52.571Z,15.52
2023-05-04T11:10:39.601Z,15.32
2023-05-04T11:13:17.787Z,16.40
2023-05-04T11:16:04.602Z,14.82
2023-05-04T11:18:47.601Z,15.00
2023-05-04T11:21:41.598Z,15.63
2023-05-04T11:24:39.605Z,14.55
2023-05-04T11:27:43.690Z,15.02
2023-05-04T11:30:48.577Z,14.20
2023-05-04T11:33:42.581Z,13.73
2023-05-04T11:36:38.586Z,14.15
2023-05-04T11:39:33.639Z,15.32
2023-05-04T11:42:20.585Z,16.58
2023-05-04T11:44:53.718Z,14.88
2023-05-04T11:47:40.609Z,14.43
2023-05-04T11:50:23.675Z,15.32
2023-05-04T11:53:13.678Z,14.07
2023-05-04T11:55:47.050Z,13.40
2023-05-04T11:58:33.619Z,13.35
2023-05-04T12:01:06.722Z,14.43
2023-05-04T12:03:54.337Z,14.63
2023-05-04T12:06:47.568Z,17.38
2023-05-04T12:09:34.585Z,16.05
2023-05-04T12:12:14.650Z,15.52
2023-05-04T12:15:08.689Z,16.75
2023-05-04T12:18:03.235Z,16.48
2023-05-04T12:20:57.612Z,15.43
2023-05-04T12:23:45.592Z,17.33
2023-05-04T12:26:26.605Z,15.40
2023-05-04T12:29:20.585Z,15.80
2023-05-04T12:32:07.654Z,17.17
2023-05-04T12:34:40.713Z,17.00
2023-05-04T12:37:27.609Z,18.23
2023-05-04T12:40:00.875Z,15.93
2023-05-04T12:42:48.605Z,17.13
2023-05-04T12:45:22.692Z,17.23
2023-05-04T12:48:09.613Z,14.60
2023-05-04T12:50:42.762Z,14.63
2023-05-04T12:53:32.635Z,16.50
2023-05-04T12:56:06.916Z,15.35
2023-05-04T12:58:53.606Z,18.13
2023-05-04T13:04:21.654Z,15.95
2023-05-04T13:07:15.644Z,17.88
2023-05-04T13:10:02.666Z,19.65
2023-05-04T13:12:43.560Z,19.30
2023-05-04T13:15:39.726Z,17.55
2023-05-04T13:18:33.630Z,16.90
2023-05-04T13:21:20.669Z,17.00
2023-05-04T13:23:53.868Z,18.45
2023-05-04T13:26:40.721Z,17.75
2023-05-04T13:29:13.757Z,17.45
2023-05-04T13:32:00.801Z,15.13
2023-05-04T13:34:40.707Z,14.15
2023-05-04T13:37:24.677Z,16.08
2023-05-04T13:40:11.637Z,16.90
2023-05-04T13:43:05.674Z,17.13
2023-05-04T13:45:59.679Z,15.15
2023-05-04T13:48:46.666Z,16.25
2023-05-04T13:51:26.676Z,16.55
2023-05-04T13:54:14.816Z,15.93
2023-05-04T13:56:54.656Z,14.10
2023-05-04T13:59:44.589Z,15.13
2023-05-04T14:02:29.120Z,15.18
2023-05-04T14:05:22.671Z,17.00
2023-05-04T14:08:16.632Z,15.82
2023-05-04T14:11:03.665Z,14.40
2023-05-04T14:13:43.702Z,15.63
2023-05-04T14:16:30.687Z,14.88
2023-05-04T14:19:03.831Z,15.15
2023-05-04T14:21:50.655Z,15.60
2023-05-04T14:24:24.947Z,16.60
2023-05-04T14:27:11.691Z,14.60
2023-05-04T14:29:51.696Z,16.23
2023-05-04T14:32:45.719Z,16.08
2023-05-04T14:35:39.688Z,15.68
2023-05-04T14:38:33.692Z,14.52
2023-05-04T14:41:27.679Z,14.18
2023-05-04T14:44:14.666Z,14.77
2023-05-04T14:46:48.408Z,14.63
2023-05-04T14:49:37.229Z,15.45
2023-05-04T14:52:11.881Z,16.30
2023-05-04T14:54:58.680Z,15.73
2023-05-04T14:57:38.695Z,13.90
2023-05-04T15:00:32.682Z,14.20
2023-05-04T15:03:26.816Z,13.93
2023-05-04T15:06:20.715Z,15.55
2023-05-04T15:09:14.685Z,14.20
2023-05-04T15:12:01.686Z,15.85
2023-05-04T15:14:34.780Z,15.38
2023-05-04T15:17:21.709Z,14.35
2023-05-04T15:19:54.783Z,14.90
2023-05-04T15:22:41.718Z,15.85
2023-05-04T15:25:15.831Z,16.20
2023-05-04T15:28:02.683Z,16.23
2023-05-04T15:30:42.686Z,15.00
2023-05-04T15:33:36.689Z,13.90
2023-05-04T15:36:23.704Z,16.13
2023-05-04T15:39:03.687Z,15.63
2023-05-04T15:41:57.753Z,15.63
2023-05-04T15:44:51.726Z,17.10
2023-05-04T15:47:45.698Z,14.75
2023-05-04T15:50:39.707Z,16.50
2023-05-04T15:53:26.741Z,15.52
2023-05-04T15:55:59.812Z,14.32
2023-05-04T15:58:46.730Z,14.35
2023-05-04T16:01:19.933Z,15.05
2023-05-04T16:04:06.731Z,15.05
2023-05-04T16:06:39.888Z,14.35
2023-05-04T16:09:27.702Z,17.92
2023-05-04T16:12:00.821Z,15.15
2023-05-04T16:14:47.726Z,15.02
2023-05-04T16:17:20.884Z,14.35
2023-05-04T16:20:11.698Z,15.00
2023-05-04T16:22:44.938Z,15.38
2023-05-04T16:25:31.774Z,15.63
2023-05-04T16:28:11.731Z,14.10
2023-05-04T16:31:05.795Z,15.05
2023-05-04T16:33:53.728Z,14.43
2023-05-04T16:36:26.926Z,13.88
2023-05-04T16:39:13.744Z,14.95
2023-05-04T16:41:54.744Z,21.60
2023-05-04T16:44:48.773Z,18.92
2023-05-04T16:47:35.825Z,17.73
2023-05-04T16:50:08.975Z,16.60
2023-05-04T16:52:55.749Z,17.05
2023-05-04T16:55:35.874Z,16.85
2023-05-04T16:58:22.738Z,15.48
2023-05-04T17:00:55.992Z,15.25
2023-05-04T17:03:42.823Z,16.27
2023-05-04T17:06:16.058Z,15.30
2023-05-04T17:09:02.758Z,14.82
2023-05-04T17:11:37.938Z,17.25
2023-05-04T17:14:24.751Z,22.58
2023-05-04T17:17:04.795Z,21.52
2023-05-04T17:19:51.764Z,23.30
2023-05-04T17:22:31.812Z,35.35
2023-05-04T17:25:19.782Z,26.15
2023-05-04T17:27:52.908Z,27.02
2023-05-04T17:30:41.737Z,20.60
2023-05-04T17:33:14.956Z,19.58
2023-05-04T17:36:01.792Z,17.25
2023-05-04T17:38:34.924Z,17.42
2023-05-04T17:41:22.875Z,23.25
2023-05-04T17:43:56.850Z,14.10
2023-05-04T17:46:43.764Z,14.90
2023-05-04T17:49:25.800Z,22.40
2023-05-04T17:52:19.780Z,27.60
2023-05-04T17:55:06.761Z,28.05
2023-05-04T17:57:39.846Z,23.98
2023-05-04T18:00:27.774Z,27.00
2023-05-04T18:03:01.065Z,32.40
2023-05-04T18:05:54.793Z,27.80
2023-05-04T18:08:48.755Z,34.80
2023-05-04T18:11:35.749Z,29.60
2023-05-04T18:14:08.949Z,33.63
2023-05-04T18:16:55.768Z,36.47
2023-05-04T18:19:29.576Z,32.83
2023-05-04T18:22:16.895Z,51.13
2023-05-04T18:24:50.088Z,47.83
2023-05-04T18:27:40.929Z,38.10
2023-05-04T18:30:15.981Z,20.83
2023-05-04T18:33:03.122Z,25.63
2023-05-04T18:35:38.050Z,27.70
2023-05-04T18:38:25.262Z,26.30
2023-05-04T18:41:02.278Z,24.98
2023-05-04T18:43:49.963Z,26.23
2023-05-04T18:46:23.751Z,24.80
2023-05-04T18:49:12.497Z,23.73
2023-05-04T18:51:52.940Z,28.23
2023-05-04T18:54:39.848Z,30.10
2023-05-04T18:57:13.080Z,22.75
2023-05-04T19:00:00.776Z,26.55
2023-05-04T19:02:40.878Z,29.35
2023-05-04T19:05:34.843Z,33.28
2023-05-04T19:08:21.824Z,38.47
2023-05-04T19:10:56.448Z,37.60
2023-05-04T19:13:42.801Z,37.55
2023-05-04T19:16:20.080Z,47.03
2023-05-04T19:19:06.796Z,43.55
2023-05-04T19:21:42.978Z,31.92
2023-05-04T19:24:29.808Z,39.38
2023-05-04T19:27:11.828Z,41.67
2023-05-04T19:30:05.995Z,27.45
2023-05-04T19:32:59.827Z,21.83
2023-05-04T19:35:53.802Z,27.17
2023-05-04T19:38:47.869Z,26.17
2023-05-04T19:41:35.829Z,29.42
2023-05-04T19:44:10.355Z,30.58
2023-05-04T19:46:57.843Z,33.38
2023-05-04T19:49:32.078Z,25.85
2023-05-04T19:52:18.818Z,23.40
2023-05-04T19:54:59.803Z,24.65
2023-05-04T19:57:56.803Z,28.25
2023-05-04T20:00:52.916Z,27.15
2023-05-04T20:03:40.888Z,26.63
2023-05-04T20:06:14.138Z,23.80
2023-05-04T20:09:01.867Z,23.33
2023-05-04T20:11:36.089Z,22.52
2023-05-04T20:14:22.815Z,19.33
2023-05-04T20:16:58.180Z,17.70
2023-05-04T20:19:45.807Z,18.23
2023-05-04T20:22:20.972Z,20.23
2023-05-04T20:25:07.826Z,21.27
2023-05-04T20:27:47.825Z,23.73
2023-05-04T20:30:41.851Z,24.40
2023-05-04T20:33:28.833Z,24.30
2023-05-04T20:36:02.574Z,20.30
2023-05-04T20:38:48.820Z,21.85
2023-05-04T20:41:22.389Z,36.20
2023-05-04T20:44:01.830Z,27.08
2023-05-04T20:46:41.855Z,23.83
2023-05-04T20:49:15.067Z,27.70
2023-05-04T20:52:17.890Z,23.13
2023-05-04T20:55:04.915Z,19.83
2023-05-04T20:57:44.909Z,20.35
2023-05-04T21:00:33.428Z,18.30
2023-05-04T21:03:07.062Z,18.20
2023-05-04T21:06:00.814Z,23.42
2023-05-04T21:08:54.850Z,36.67
2023-05-04T21:11:41.845Z,36.20
2023-05-04T21:14:15.317Z,38.38
2023-05-04T21:17:01.896Z,35.75
2023-05-04T21:19:41.840Z,26.73
2023-05-04T21:22:35.867Z,19.85
2023-05-04T21:25:23.873Z,23.20
2023-05-04T21:27:58.225Z,27.45
2023-05-04T21:30:48.839Z,23.27
2023-05-04T21:33:28.972Z,27.05
2023-05-04T21:36:29.849Z,29.55
2023-05-04T21:39:17.852Z,23.00
2023-05-04T21:41:51.038Z,18.52
2023-05-04T21:44:37.978Z,20.73
2023-05-04T21:47:11.140Z,23.05
2023-05-04T21:49:58.903Z,25.83
2023-05-04T21:52:31.951Z,28.05
2023-05-04T21:55:18.853Z,30.05
2023-05-04T21:57:51.943Z,28.73
2023-05-04T22:00:39.897Z,28.02
2023-05-04T22:03:12.961Z,23.58
2023-05-04T22:06:07.881Z,18.17
2023-05-04T22:09:01.898Z,17.75
2023-05-04T22:11:55.851Z,18.08
2023-05-04T22:14:42.858Z,20.10
2023-05-04T22:17:15.967Z,19.35
2023-05-04T22:20:02.894Z,21.42
2023-05-04T22:22:51.881Z,20.72
2023-05-04T22:25:38.874Z,19.30
2023-05-04T22:28:12.969Z,20.42
2023-05-04T22:30:59.889Z,19.00
2023-05-04T22:33:33.001Z,22.23
2023-05-04T22:36:19.880Z,20.27
2023-05-04T22:38:53.029Z,19.10
2023-05-04T22:41:39.866Z,19.98
2023-05-04T22:44:12.976Z,18.65
2023-05-04T22:46:59.898Z,19.35
2023-05-04T22:49:32.989Z,18.20
2023-05-04T22:52:19.972Z,18.52
2023-05-04T22:54:52.994Z,19.88
2023-05-04T22:57:39.885Z,17.63
2023-05-04T23:00:20.903Z,19.35
2023-05-04T23:03:14.969Z,16.45
2023-05-04T23:06:11.900Z,18.13
2023-05-04T23:09:05.912Z,18.83
2023-05-04T23:11:52.899Z,17.92
2023-05-04T23:14:26.706Z,18.30
2023-05-04T23:17:13.879Z,17.67
2023-05-04T23:19:53.894Z,17.55
2023-05-04T23:22:40.880Z,16.60
2023-05-04T23:25:20.912Z,17.50
2023-05-04T23:28:07.888Z,17.52
2023-05-04T23:30:41.080Z,16.67
2023-05-04T23:33:27.901Z,15.85
2023-05-04T23:36:01.987Z,16.88
2023-05-04T23:38:48.901Z,16.35
2023-05-04T23:41:28.907Z,16.38
2023-05-04T23:44:22.911Z,16.92
2023-05-04T23:47:16.899Z,17.48
2023-05-04T23:50:10.926Z,16.85
2023-05-04T23:53:04.908Z,17.20
2023-05-04T23:55:59.701Z,16.60
2023-05-04T23:58:55.908Z,15.98
